Terminal Aerodrome Forecast
Issued by NWS

Home | Current Version | Previous Version | Text Only | Print | Product List | Glossary On
Versions: 1 2 3 4 5 6 7 8 9 10 11 12 13 14
824
FTUS46 KPDT 022339
TAFPSC
TAF
KPSC 022339Z 0300/0324 19010KT P6SM BKN070 OVC090
     FM030700 22009KT P6SM SCT070 BKN200
     FM031100 23008KT P6SM BKN070 BKN150
     FM031800 24012G18KT P6SM BKN150=

USA.gov is the U.S. government's official web portal to all federal, state and local government web resources and services.